EWG2X EDDK-EGPH
Flight info
| Callsign | EWG2X |
|---|---|
| Flight time | N/A |
| Altitude | 38000 |
| Route | WYP DCT LUSIX DCT TENLI L602 MIMVA DCT ANMAZ DCT NATEB Y96 AGPED |
| Aircraft | A320/M-SDE3FGHIRWY/LB1 |
Departure
| Time | 2026-04-24 08:30 |
|---|---|
| Airport | Cologne Bonn Airport (EDDK) |
Arrival
| Time | N/A |
|---|---|
| Airport | Edinburgh Airport (EGPH) |
| Time | Latitude | Longitude | Altitude | Speed | Heading |
|---|---|---|---|---|---|
| 2026-04-24 08:04 | 50.87769 | 7.12401 | 232 ft | 0 kts | 288° |
| 2026-04-24 08:16 | 50.87768 | 7.12403 | 232 ft | 2 kts | 288° |
| 2026-04-24 08:17 | 50.87760 | 7.12441 | 235 ft | 4 kts | 288° |
| 2026-04-24 08:17 | 50.87753 | 7.12480 | 235 ft | 4 kts | 290° |
| 2026-04-24 08:17 | 50.87740 | 7.12515 | 234 ft | 4 kts | 328° |
| 2026-04-24 08:17 | 50.87716 | 7.12524 | 232 ft | 4 kts | 13° |
| 2026-04-24 08:18 | 50.87690 | 7.12511 | 232 ft | 4 kts | 21° |
| 2026-04-24 08:18 | 50.87683 | 7.12506 | 234 ft | 0 kts | 18° |
| 2026-04-24 08:20 | 50.87690 | 7.12510 | 232 ft | 5 kts | 18° |
| 2026-04-24 08:20 | 50.87748 | 7.12552 | 234 ft | 10 kts | 42° |
| 2026-04-24 08:20 | 50.87770 | 7.12651 | 232 ft | 9 kts | 86° |
| 2026-04-24 08:21 | 50.87736 | 7.12750 | 232 ft | 16 kts | 139° |
| 2026-04-24 08:21 | 50.87652 | 7.12869 | 232 ft | 15 kts | 137° |
| 2026-04-24 08:21 | 50.87575 | 7.12979 | 232 ft | 14 kts | 137° |
| 2026-04-24 08:21 | 50.87506 | 7.13079 | 232 ft | 13 kts | 137° |
| 2026-04-24 08:22 | 50.87442 | 7.13172 | 232 ft | 12 kts | 137° |
| 2026-04-24 08:22 | 50.87382 | 7.13258 | 232 ft | 13 kts | 137° |
| 2026-04-24 08:22 | 50.87310 | 7.13363 | 232 ft | 14 kts | 137° |
| 2026-04-24 08:22 | 50.87247 | 7.13455 | 234 ft | 11 kts | 137° |
| 2026-04-24 08:23 | 50.87200 | 7.13523 | 241 ft | 8 kts | 137° |
| 2026-04-24 08:23 | 50.87167 | 7.13570 | 237 ft | 5 kts | 137° |
| 2026-04-24 08:23 | 50.87129 | 7.13625 | 239 ft | 15 kts | 137° |
| 2026-04-24 08:23 | 50.87039 | 7.13756 | 242 ft | 17 kts | 137° |
| 2026-04-24 08:24 | 50.86962 | 7.13866 | 246 ft | 12 kts | 137° |
| 2026-04-24 08:24 | 50.86915 | 7.13935 | 251 ft | 8 kts | 137° |
| 2026-04-24 08:24 | 50.86862 | 7.14011 | 255 ft | 13 kts | 137° |
| 2026-04-24 08:24 | 50.86798 | 7.14104 | 255 ft | 12 kts | 137° |
| 2026-04-24 08:25 | 50.86728 | 7.14149 | 256 ft | 9 kts | 148° |
| 2026-04-24 08:25 | 50.86657 | 7.14248 | 261 ft | 21 kts | 136° |
| 2026-04-24 08:25 | 50.86533 | 7.14428 | 264 ft | 24 kts | 137° |
| 2026-04-24 08:25 | 50.86417 | 7.14596 | 271 ft | 21 kts | 137° |
| 2026-04-24 08:26 | 50.86321 | 7.14735 | 277 ft | 16 kts | 137° |
| 2026-04-24 08:26 | 50.86249 | 7.14840 | 281 ft | 12 kts | 137° |
| 2026-04-24 08:26 | 50.86178 | 7.14943 | 285 ft | 18 kts | 137° |
| 2026-04-24 08:26 | 50.86076 | 7.15091 | 288 ft | 16 kts | 137° |
| 2026-04-24 08:27 | 50.86045 | 7.15229 | 290 ft | 12 kts | 83° |
| 2026-04-24 08:27 | 50.86087 | 7.15332 | 292 ft | 11 kts | 36° |
| 2026-04-24 08:27 | 50.86156 | 7.15358 | 290 ft | 11 kts | 355° |
| 2026-04-24 08:27 | 50.86224 | 7.15333 | 288 ft | 0 kts | 346° |
| 2026-04-24 08:28 | 50.86264 | 7.15320 | 288 ft | 7 kts | 348° |
| 2026-04-24 08:28 | 50.86358 | 7.15321 | 285 ft | 17 kts | 6° |
| 2026-04-24 08:29 | 50.86419 | 7.15267 | 283 ft | 0 kts | 317° |
| 2026-04-24 08:29 | 50.86444 | 7.15231 | 282 ft | 28 kts | 317° |
| 2026-04-24 08:29 | 50.86786 | 7.14736 | 267 ft | 103 kts | 318° |
| 2026-04-24 08:29 | 50.87461 | 7.13748 | 331 ft | 150 kts | 316° |
| 2026-04-24 08:30 | 50.88260 | 7.12691 | 1043 ft | 153 kts | 331° |
| 2026-04-24 08:30 | 50.89320 | 7.12326 | 1698 ft | 167 kts | 3° |
| 2026-04-24 08:30 | 50.90530 | 7.12682 | 2137 ft | 187 kts | 13° |
| 2026-04-24 08:30 | 50.91774 | 7.13544 | 2504 ft | 210 kts | 30° |
| 2026-04-24 08:31 | 50.93069 | 7.14904 | 2943 ft | 236 kts | 33° |
| 2026-04-24 08:31 | 50.94452 | 7.16438 | 3745 ft | 247 kts | 33° |
| 2026-04-24 08:31 | 50.95868 | 7.18030 | 4762 ft | 250 kts | 33° |
| 2026-04-24 08:31 | 50.97297 | 7.19638 | 5779 ft | 253 kts | 33° |
| 2026-04-24 08:32 | 50.98755 | 7.21271 | 6735 ft | 258 kts | 33° |
| 2026-04-24 08:32 | 51.00246 | 7.22927 | 7638 ft | 263 kts | 33° |
| 2026-04-24 08:32 | 51.01748 | 7.24586 | 8533 ft | 268 kts | 33° |
| 2026-04-24 08:32 | 51.03363 | 7.26094 | 9420 ft | 272 kts | 20° |
| 2026-04-24 08:33 | 51.05205 | 7.26803 | 10284 ft | 276 kts | 4° |
| 2026-04-24 08:33 | 51.07182 | 7.26595 | 10742 ft | 297 kts | 347° |
| 2026-04-24 08:33 | 51.09197 | 7.25477 | 11190 ft | 314 kts | 340° |
| 2026-04-24 08:33 | 51.11246 | 7.24238 | 11922 ft | 321 kts | 340° |
| 2026-04-24 08:34 | 51.13356 | 7.22966 | 12716 ft | 326 kts | 340° |
| 2026-04-24 08:34 | 51.15500 | 7.21683 | 13500 ft | 331 kts | 340° |
| 2026-04-24 08:34 | 51.16234 | 7.21246 | 13765 ft | 333 kts | 340° |
| 2026-04-24 08:34 | 51.16297 | 7.21208 | 13786 ft | 333 kts | 340° |
| 2026-04-24 08:35 | 51.18252 | 7.20068 | 14448 ft | 335 kts | 340° |
| 2026-04-24 08:35 | 51.20468 | 7.18764 | 15060 ft | 342 kts | 340° |
| 2026-04-24 08:35 | 51.22708 | 7.17426 | 15732 ft | 346 kts | 340° |
| 2026-04-24 08:35 | 51.24983 | 7.16061 | 16416 ft | 350 kts | 339° |
| 2026-04-24 08:36 | 51.27279 | 7.14681 | 17101 ft | 354 kts | 339° |
| 2026-04-24 08:36 | 51.29578 | 7.13303 | 17770 ft | 358 kts | 339° |
| 2026-04-24 08:36 | 51.31932 | 7.11898 | 18451 ft | 362 kts | 339° |
| 2026-04-24 08:36 | 51.34310 | 7.10478 | 19055 ft | 366 kts | 339° |
| 2026-04-24 08:37 | 51.36709 | 7.09041 | 19635 ft | 370 kts | 339° |
| 2026-04-24 08:37 | 51.39134 | 7.07581 | 20212 ft | 373 kts | 338° |
| 2026-04-24 08:37 | 51.41585 | 7.06103 | 20775 ft | 377 kts | 338° |
| 2026-04-24 08:37 | 51.44026 | 7.04633 | 21326 ft | 381 kts | 338° |
| 2026-04-24 08:38 | 51.46529 | 7.03128 | 21875 ft | 385 kts | 338° |
| 2026-04-24 08:38 | 51.49051 | 7.01609 | 22414 ft | 389 kts | 338° |
| 2026-04-24 08:38 | 51.51596 | 7.00076 | 22949 ft | 392 kts | 338° |
| 2026-04-24 08:38 | 51.54173 | 6.98522 | 23477 ft | 396 kts | 338° |
| 2026-04-24 08:39 | 51.56767 | 6.96952 | 23977 ft | 399 kts | 338° |
| 2026-04-24 08:39 | 51.59354 | 6.95383 | 24415 ft | 402 kts | 338° |
| 2026-04-24 08:39 | 51.61983 | 6.93789 | 24864 ft | 405 kts | 338° |
| 2026-04-24 08:39 | 51.64631 | 6.92178 | 25299 ft | 408 kts | 337° |
| 2026-04-24 08:40 | 51.67301 | 6.90550 | 25737 ft | 410 kts | 337° |
| 2026-04-24 08:40 | 51.69957 | 6.88829 | 26165 ft | 411 kts | 332° |
| 2026-04-24 08:40 | 51.72397 | 6.86525 | 26582 ft | 411 kts | 322° |
| 2026-04-24 08:40 | 51.74737 | 6.83812 | 26996 ft | 414 kts | 322° |
| 2026-04-24 08:41 | 51.77084 | 6.81078 | 27417 ft | 416 kts | 322° |
| 2026-04-24 08:41 | 51.79438 | 6.78332 | 27836 ft | 419 kts | 322° |
| 2026-04-24 08:41 | 51.81814 | 6.75551 | 28238 ft | 421 kts | 322° |
| 2026-04-24 08:41 | 51.84172 | 6.72797 | 28634 ft | 424 kts | 322° |
| 2026-04-24 08:42 | 51.86572 | 6.69990 | 29040 ft | 426 kts | 321° |
| 2026-04-24 08:42 | 51.88992 | 6.67160 | 29430 ft | 429 kts | 321° |
| 2026-04-24 08:42 | 51.91423 | 6.64316 | 29813 ft | 432 kts | 321° |
| 2026-04-24 08:42 | 51.93871 | 6.61447 | 30201 ft | 434 kts | 321° |
| 2026-04-24 08:43 | 51.96291 | 6.58610 | 30537 ft | 437 kts | 321° |
| 2026-04-24 08:43 | 51.98769 | 6.55704 | 30844 ft | 439 kts | 321° |
| 2026-04-24 08:43 | 52.01257 | 6.52784 | 31143 ft | 441 kts | 321° |
| 2026-04-24 08:43 | 52.03753 | 6.49842 | 31437 ft | 443 kts | 321° |
| 2026-04-24 08:44 | 52.06258 | 6.46879 | 31727 ft | 446 kts | 321° |
| 2026-04-24 08:44 | 52.08736 | 6.43949 | 32039 ft | 447 kts | 321° |
| 2026-04-24 08:44 | 52.11252 | 6.40975 | 32458 ft | 446 kts | 321° |
| 2026-04-24 08:44 | 52.13765 | 6.38005 | 32866 ft | 445 kts | 320° |
| 2026-04-24 08:45 | 52.16266 | 6.35038 | 33268 ft | 445 kts | 320° |
| 2026-04-24 08:45 | 52.18771 | 6.32056 | 33667 ft | 444 kts | 320° |
| 2026-04-24 08:45 | 52.21219 | 6.28994 | 34060 ft | 441 kts | 314° |
| 2026-04-24 08:45 | 52.23339 | 6.25437 | 34428 ft | 435 kts | 305° |
| 2026-04-24 08:46 | 52.25047 | 6.21469 | 34759 ft | 430 kts | 296° |
| 2026-04-24 08:46 | 52.26355 | 6.17121 | 35083 ft | 425 kts | 287° |
| 2026-04-24 08:46 | 52.27348 | 6.12581 | 35405 ft | 423 kts | 285° |
| 2026-04-24 08:46 | 52.28326 | 6.08038 | 35707 ft | 423 kts | 285° |
| 2026-04-24 08:47 | 52.29304 | 6.03504 | 36014 ft | 422 kts | 285° |
| 2026-04-24 08:47 | 52.30283 | 5.98971 | 36312 ft | 422 kts | 285° |
| 2026-04-24 08:47 | 52.31250 | 5.94493 | 36601 ft | 421 kts | 285° |
| 2026-04-24 08:47 | 52.32223 | 5.89975 | 36885 ft | 421 kts | 285° |
| 2026-04-24 08:48 | 52.33192 | 5.85462 | 37167 ft | 420 kts | 285° |
| 2026-04-24 08:48 | 52.34158 | 5.80940 | 37436 ft | 420 kts | 285° |
| 2026-04-24 08:48 | 52.35110 | 5.76467 | 37702 ft | 420 kts | 285° |
| 2026-04-24 08:48 | 52.36072 | 5.71940 | 37967 ft | 419 kts | 284° |
| 2026-04-24 08:49 | 52.37029 | 5.67416 | 38222 ft | 419 kts | 284° |
| 2026-04-24 08:49 | 52.38785 | 5.59077 | 38327 ft | 417 kts | 284° |
| 2026-04-24 08:50 | 52.40672 | 5.50086 | 38328 ft | 417 kts | 284° |
| 2026-04-24 08:50 | 52.42553 | 5.41104 | 38331 ft | 417 kts | 284° |
| 2026-04-24 08:51 | 52.44414 | 5.32168 | 38330 ft | 417 kts | 284° |
| 2026-04-24 08:51 | 52.46289 | 5.23145 | 38333 ft | 417 kts | 284° |
| 2026-04-24 08:52 | 52.48155 | 5.14121 | 38340 ft | 417 kts | 284° |
| 2026-04-24 08:52 | 52.50003 | 5.05132 | 38356 ft | 417 kts | 283° |
| 2026-04-24 08:53 | 52.51853 | 4.96079 | 38365 ft | 418 kts | 283° |
| 2026-04-24 08:53 | 52.53760 | 4.87054 | 38363 ft | 421 kts | 289° |
| 2026-04-24 08:54 | 52.56824 | 4.78802 | 38362 ft | 429 kts | 300° |
| 2026-04-24 08:54 | 52.60255 | 4.70753 | 38365 ft | 429 kts | 299° |
| 2026-04-24 08:55 | 52.63609 | 4.62793 | 38363 ft | 429 kts | 299° |
| 2026-04-24 08:55 | 52.66989 | 4.54730 | 38365 ft | 430 kts | 299° |
| 2026-04-24 08:56 | 52.70396 | 4.46608 | 38363 ft | 430 kts | 299° |
| 2026-04-24 08:56 | 52.73806 | 4.38473 | 38374 ft | 431 kts | 299° |
| 2026-04-24 08:57 | 52.76863 | 4.30093 | 38370 ft | 427 kts | 294° |
| 2026-04-24 08:57 | 52.79775 | 4.21503 | 38381 ft | 427 kts | 294° |
| 2026-04-24 08:58 | 52.82669 | 4.12951 | 38379 ft | 428 kts | 294° |
| 2026-04-24 08:58 | 52.85569 | 4.04343 | 38392 ft | 428 kts | 293° |
| 2026-04-24 08:59 | 52.87979 | 3.97160 | 38379 ft | 429 kts | 293° |
| 2026-04-24 08:59 | 52.91351 | 3.87101 | 38382 ft | 429 kts | 293° |
| 2026-04-24 09:00 | 52.93763 | 3.79878 | 38388 ft | 430 kts | 293° |
| 2026-04-24 09:00 | 52.96665 | 3.71161 | 38392 ft | 430 kts | 293° |
| 2026-04-24 09:01 | 52.99538 | 3.62485 | 38398 ft | 430 kts | 293° |
| 2026-04-24 09:01 | 53.02426 | 3.53744 | 38397 ft | 431 kts | 293° |
| 2026-04-24 09:02 | 53.05296 | 3.45036 | 38389 ft | 431 kts | 293° |
| 2026-04-24 09:02 | 53.08167 | 3.36261 | 38389 ft | 431 kts | 293° |
| 2026-04-24 09:03 | 53.11323 | 3.27810 | 38376 ft | 438 kts | 304° |
| 2026-04-24 09:03 | 53.15182 | 3.19934 | 38378 ft | 438 kts | 304° |
| 2026-04-24 09:04 | 53.19037 | 3.12036 | 38391 ft | 438 kts | 304° |
| 2026-04-24 09:04 | 53.22856 | 3.04155 | 38400 ft | 438 kts | 304° |
| 2026-04-24 09:05 | 53.26682 | 2.96226 | 38401 ft | 438 kts | 304° |
| 2026-04-24 09:05 | 53.30507 | 2.88282 | 38405 ft | 438 kts | 304° |
| 2026-04-24 09:06 | 53.34068 | 2.80851 | 38407 ft | 438 kts | 304° |
| 2026-04-24 09:06 | 53.37889 | 2.72857 | 38405 ft | 438 kts | 304° |
| 2026-04-24 09:07 | 53.41676 | 2.64922 | 38411 ft | 438 kts | 304° |
| 2026-04-24 09:07 | 53.47375 | 2.52963 | 38416 ft | 438 kts | 304° |
| 2026-04-24 09:08 | 53.51177 | 2.44936 | 38415 ft | 438 kts | 304° |
| 2026-04-24 09:08 | 53.54946 | 2.36950 | 38420 ft | 438 kts | 304° |
| 2026-04-24 09:09 | 53.58733 | 2.28895 | 38421 ft | 437 kts | 305° |
| 2026-04-24 09:09 | 53.62491 | 2.20887 | 38423 ft | 437 kts | 305° |
| 2026-04-24 09:10 | 53.66265 | 2.12816 | 38426 ft | 437 kts | 305° |
| 2026-04-24 09:10 | 53.70028 | 2.04755 | 38428 ft | 437 kts | 305° |
| 2026-04-24 09:11 | 53.73774 | 1.96677 | 38430 ft | 437 kts | 305° |
| 2026-04-24 09:11 | 53.77496 | 1.88627 | 38429 ft | 437 kts | 305° |
| 2026-04-24 09:12 | 53.81239 | 1.80514 | 38424 ft | 437 kts | 305° |
| 2026-04-24 09:12 | 53.84992 | 1.72372 | 38425 ft | 437 kts | 305° |
| 2026-04-24 09:13 | 53.88698 | 1.64285 | 38424 ft | 437 kts | 305° |
| 2026-04-24 09:13 | 53.92423 | 1.56132 | 38425 ft | 436 kts | 305° |
| 2026-04-24 09:14 | 53.96133 | 1.47994 | 38429 ft | 436 kts | 305° |
| 2026-04-24 09:14 | 53.99851 | 1.39806 | 38428 ft | 436 kts | 305° |
| 2026-04-24 09:15 | 54.03534 | 1.31650 | 38431 ft | 436 kts | 305° |
| 2026-04-24 09:15 | 54.07230 | 1.23447 | 38429 ft | 436 kts | 305° |
| 2026-04-24 09:16 | 54.10905 | 1.15274 | 38427 ft | 436 kts | 305° |
| 2026-04-24 09:16 | 54.14372 | 1.07555 | 38422 ft | 436 kts | 306° |
| 2026-04-24 09:17 | 54.18067 | 0.99296 | 38424 ft | 436 kts | 306° |
| 2026-04-24 09:17 | 54.21720 | 0.91089 | 38420 ft | 436 kts | 306° |
| 2026-04-24 09:18 | 54.25397 | 0.82797 | 38420 ft | 437 kts | 306° |
| 2026-04-24 09:18 | 54.29047 | 0.74532 | 38412 ft | 437 kts | 306° |
| 2026-04-24 09:19 | 54.32712 | 0.66207 | 38423 ft | 437 kts | 306° |
| 2026-04-24 09:19 | 54.36380 | 0.57871 | 38430 ft | 438 kts | 306° |
| 2026-04-24 09:20 | 54.40030 | 0.49548 | 38428 ft | 438 kts | 306° |
| 2026-04-24 09:20 | 54.43693 | 0.41154 | 38434 ft | 438 kts | 306° |
| 2026-04-24 09:21 | 54.47345 | 0.32741 | 38440 ft | 438 kts | 306° |
| 2026-04-24 09:21 | 54.50970 | 0.24375 | 38437 ft | 438 kts | 306° |
| 2026-04-24 09:22 | 54.54599 | 0.15947 | 38435 ft | 437 kts | 304° |
| 2026-04-24 09:22 | 54.57473 | 0.06805 | 38433 ft | 436 kts | 294° |
| 2026-04-24 09:23 | 54.60053 | -0.02668 | 38436 ft | 435 kts | 294° |
| 2026-04-24 09:23 | 54.62618 | -0.12108 | 38417 ft | 435 kts | 294° |
| 2026-04-24 09:24 | 54.65181 | -0.21595 | 38430 ft | 435 kts | 294° |
| 2026-04-24 09:24 | 54.67722 | -0.31046 | 38430 ft | 435 kts | 294° |
| 2026-04-24 09:25 | 54.70269 | -0.40564 | 38430 ft | 436 kts | 294° |
| 2026-04-24 09:25 | 54.72801 | -0.50056 | 38428 ft | 436 kts | 295° |
| 2026-04-24 09:26 | 54.75335 | -0.59603 | 38434 ft | 436 kts | 295° |